createdAt,value
2019-02-26T00:00:49.487Z,28.90
2019-02-26T00:03:23.915Z,34.53
2019-02-26T00:05:54.892Z,43.60
2019-02-26T00:08:29.097Z,28.23
2019-02-26T00:11:01.278Z,35.07
2019-02-26T00:13:44.802Z,25.87
2019-02-26T00:16:18.381Z,29.30
2019-02-26T00:18:49.181Z,34.43
2019-02-26T00:21:22.647Z,33.00
2019-02-26T00:23:53.501Z,27.53
2019-02-26T00:26:25.013Z,35.90
2019-02-26T00:28:57.333Z,28.20
2019-02-26T00:31:30.445Z,28.53
2019-02-26T00:34:02.042Z,28.13
2019-02-26T00:36:34.306Z,27.70
2019-02-26T00:39:07.760Z,30.80
2019-02-26T00:41:40.437Z,31.33
2019-02-26T00:44:11.695Z,32.90
2019-02-26T00:46:42.981Z,34.30
2019-02-26T00:49:14.038Z,30.27
2019-02-26T00:51:46.508Z,29.80
2019-02-26T00:54:20.177Z,27.50
2019-02-26T00:56:51.354Z,35.10
2019-02-26T00:59:22.575Z,28.43
2019-02-26T01:01:54.867Z,32.87
2019-02-26T01:04:26.819Z,28.57
2019-02-26T01:06:59.130Z,30.00
2019-02-26T01:09:31.924Z,33.47
2019-02-26T01:12:04.274Z,32.20
2019-02-26T01:14:36.411Z,33.43
2019-02-26T01:17:09.848Z,32.07
2019-02-26T01:19:42.883Z,39.13
2019-02-26T01:22:13.888Z,32.40
2019-02-26T01:24:45.005Z,29.63
2019-02-26T01:27:16.249Z,31.53
2019-02-26T01:29:51.226Z,30.07
2019-02-26T01:32:22.313Z,30.17
2019-02-26T01:34:53.378Z,36.60
2019-02-26T01:37:25.364Z,34.70
2019-02-26T01:39:57.665Z,28.70
2019-02-26T01:42:31.214Z,27.10
2019-02-26T01:45:01.825Z,25.70
2019-02-26T01:47:33.190Z,33.23
2019-02-26T01:50:07.118Z,30.23
2019-02-26T01:52:39.273Z,33.53
2019-02-26T01:55:11.332Z,27.23
2019-02-26T01:57:43.734Z,35.63
2019-02-26T02:00:16.153Z,30.27
2019-02-26T02:02:47.844Z,30.30
2019-02-26T02:05:19.731Z,27.10
2019-02-26T02:07:53.552Z,26.83
2019-02-26T02:10:24.545Z,30.00
2019-02-26T02:12:59.569Z,28.03
2019-02-26T02:15:28.911Z,28.90
2019-02-26T02:18:01.767Z,32.30
2019-02-26T02:20:33.283Z,31.37
2019-02-26T02:23:05.341Z,27.20
2019-02-26T02:25:38.758Z,27.60
2019-02-26T02:28:10.566Z,31.70
2019-02-26T02:30:41.787Z,27.90
2019-02-26T02:33:17.257Z,28.10
2019-02-26T02:35:46.019Z,33.57
2019-02-26T02:38:20.495Z,32.13
2019-02-26T02:40:52.758Z,29.93
2019-02-26T02:43:23.626Z,33.30
2019-02-26T02:45:56.414Z,29.30
2019-02-26T02:48:28.001Z,28.77
2019-02-26T02:50:59.619Z,30.40
2019-02-26T02:53:32.465Z,27.83
2019-02-26T02:56:05.799Z,27.67
2019-02-26T02:58:38.537Z,25.00
2019-02-26T03:01:09.441Z,30.53
2019-02-26T03:03:40.920Z,29.60
2019-02-26T03:06:12.390Z,30.37
2019-02-26T03:08:45.293Z,36.70
2019-02-26T03:11:17.072Z,27.83
2019-02-26T03:13:50.721Z,30.73
2019-02-26T03:16:21.994Z,29.13
2019-02-26T03:18:54.356Z,27.63
2019-02-26T03:21:27.723Z,29.40
2019-02-26T03:24:00.921Z,31.60
2019-02-26T03:26:31.796Z,28.87
2019-02-26T03:29:03.342Z,33.80
2019-02-26T03:31:39.706Z,31.10
2019-02-26T03:34:10.403Z,30.37
2019-02-26T03:36:42.851Z,32.87
2019-02-26T03:39:13.639Z,36.53
2019-02-26T03:41:46.050Z,31.13
2019-02-26T03:44:18.083Z,29.40
2019-02-26T03:46:49.279Z,31.80
2019-02-26T03:49:20.672Z,31.60
2019-02-26T03:51:51.751Z,33.47
2019-02-26T03:54:23.066Z,30.10
2019-02-26T03:56:54.143Z,30.67
2019-02-26T03:59:25.294Z,32.40
2019-02-26T04:01:56.579Z,31.53
2019-02-26T04:04:30.467Z,31.73
2019-02-26T04:07:01.446Z,30.90
2019-02-26T04:09:33.672Z,49.37
2019-02-26T04:12:04.798Z,35.50
2019-02-26T04:14:35.955Z,26.60
2019-02-26T04:17:08.889Z,34.90
2019-02-26T04:19:43.764Z,32.37
2019-02-26T04:22:33.099Z,33.07
2019-02-26T04:25:09.388Z,33.70
2019-02-26T04:28:02.618Z,35.93
2019-02-26T04:30:58.760Z,25.27
2019-02-26T04:34:04.409Z,29.93
2019-02-26T04:37:10.330Z,36.10
2019-02-26T04:40:16.718Z,29.47
2019-02-26T04:43:33.495Z,35.17
2019-02-26T04:46:25.565Z,27.03
2019-02-26T04:48:58.383Z,33.33
2019-02-26T04:51:29.869Z,36.57
2019-02-26T04:54:02.158Z,29.67
2019-02-26T04:56:35.995Z,28.50
2019-02-26T04:59:09.252Z,30.97
2019-02-26T05:01:39.267Z,25.10
2019-02-26T05:04:10.790Z,30.17
2019-02-26T05:06:42.161Z,27.73
2019-02-26T05:09:13.476Z,36.03
2019-02-26T05:11:44.542Z,35.27
2019-02-26T05:14:20.802Z,29.27
2019-02-26T05:16:48.497Z,33.73
2019-02-26T05:19:21.767Z,33.23
2019-02-26T05:21:53.448Z,30.07
2019-02-26T05:24:26.285Z,28.03
2019-02-26T05:26:57.807Z,30.00
2019-02-26T05:29:29.315Z,32.50
2019-02-26T05:32:01.746Z,30.80
2019-02-26T05:34:33.521Z,28.87
2019-02-26T05:37:07.505Z,28.50
2019-02-26T05:39:37.835Z,27.77
2019-02-26T05:42:08.897Z,35.00
2019-02-26T05:44:40.257Z,31.33
2019-02-26T05:47:12.994Z,27.03
2019-02-26T05:49:45.818Z,29.70
2019-02-26T05:52:17.377Z,29.77
2019-02-26T05:54:48.830Z,32.33
2019-02-26T05:57:31.273Z,30.87
2019-02-26T05:59:52.954Z,30.50
2019-02-26T06:02:24.615Z,32.93
2019-02-26T06:04:56.381Z,42.50
2019-02-26T06:07:30.224Z,32.70
2019-02-26T06:10:01.636Z,28.60
2019-02-26T06:12:35.342Z,37.83
2019-02-26T06:15:08.185Z,38.03
2019-02-26T06:17:43.103Z,35.37
2019-02-26T06:20:17.989Z,32.33
2019-02-26T06:22:49.132Z,35.50
2019-02-26T06:25:24.071Z,35.10
2019-02-26T06:27:53.240Z,37.65
2019-02-26T06:30:24.444Z,31.62
2019-02-26T06:32:59.674Z,38.55
2019-02-26T06:35:28.650Z,35.58
2019-02-26T06:38:02.137Z,37.20
2019-02-26T06:40:36.684Z,34.43
2019-02-26T06:43:07.054Z,40.30
2019-02-26T06:45:41.058Z,33.53
2019-02-26T06:48:15.077Z,34.67
2019-02-26T06:50:45.565Z,34.47
2019-02-26T06:53:18.730Z,36.23
2019-02-26T06:55:49.778Z,28.87
2019-02-26T06:58:26.609Z,37.60
2019-02-26T07:00:59.354Z,32.10
2019-02-26T07:03:30.523Z,31.00
2019-02-26T07:06:04.769Z,33.67
2019-02-26T07:08:34.651Z,31.43
2019-02-26T07:11:07.496Z,33.97
2019-02-26T07:13:39.222Z,33.20
2019-02-26T07:16:11.639Z,31.40
2019-02-26T07:18:42.744Z,28.47
2019-02-26T07:21:14.032Z,37.27
2019-02-26T07:23:45.909Z,36.70
2019-02-26T07:26:18.512Z,33.17
2019-02-26T07:28:51.067Z,30.30
2019-02-26T07:31:24.271Z,33.53
2019-02-26T07:33:58.065Z,30.70
2019-02-26T07:36:29.401Z,28.63
2019-02-26T07:39:01.007Z,32.30
2019-02-26T07:41:33.954Z,32.33
2019-02-26T07:44:08.756Z,33.77
2019-02-26T07:46:40.148Z,32.47
2019-02-26T07:49:10.977Z,35.70
2019-02-26T07:51:43.044Z,34.27
2019-02-26T07:54:14.518Z,34.00
2019-02-26T07:56:46.756Z,33.90
2019-02-26T07:59:27.255Z,34.73
2019-02-26T08:01:50.885Z,32.23
2019-02-26T08:04:21.973Z,35.33
2019-02-26T08:06:54.861Z,33.37
2019-02-26T08:09:26.186Z,32.87
2019-02-26T08:11:57.621Z,36.73
2019-02-26T08:14:28.741Z,35.33
2019-02-26T08:17:01.923Z,34.87
2019-02-26T08:19:34.963Z,33.33
2019-02-26T08:22:05.994Z,35.93
2019-02-26T08:24:37.191Z,35.23
2019-02-26T08:27:11.067Z,38.37
2019-02-26T08:29:41.421Z,39.13
2019-02-26T08:32:15.934Z,38.23
2019-02-26T08:35:05.961Z,36.20
2019-02-26T08:37:37.197Z,39.50
2019-02-26T08:40:10.482Z,35.07
2019-02-26T08:42:41.817Z,36.57
2019-02-26T08:45:17.553Z,37.43
2019-02-26T08:47:48.319Z,35.70
2019-02-26T08:50:19.523Z,38.57
2019-02-26T08:52:53.486Z,37.13
2019-02-26T08:55:24.672Z,34.37
2019-02-26T08:57:56.557Z,36.90
2019-02-26T09:00:28.099Z,43.03
2019-02-26T09:02:59.830Z,33.80
2019-02-26T09:05:33.979Z,33.73
2019-02-26T09:08:05.648Z,36.83
2019-02-26T09:10:38.596Z,38.80
2019-02-26T09:13:11.423Z,35.83
2019-02-26T09:15:43.239Z,35.90
2019-02-26T09:18:14.729Z,32.17
2019-02-26T09:20:45.833Z,35.63
2019-02-26T09:23:20.811Z,37.20
2019-02-26T09:25:54.159Z,36.43
2019-02-26T09:28:24.859Z,34.03
2019-02-26T09:30:56.306Z,32.53
2019-02-26T09:33:32.668Z,44.53
2019-02-26T09:36:01.778Z,33.10
2019-02-26T09:38:33.174Z,36.70
2019-02-26T09:41:04.224Z,36.90
2019-02-26T09:43:36.196Z,37.30
2019-02-26T09:46:10.166Z,35.20
2019-02-26T09:48:43.338Z,36.30
2019-02-26T09:51:14.785Z,34.87
2019-02-26T09:53:49.367Z,33.03
2019-02-26T09:56:20.179Z,35.10
2019-02-26T09:58:51.857Z,34.23
2019-02-26T10:01:24.090Z,40.50
2019-02-26T10:03:56.090Z,41.33
2019-02-26T10:06:28.121Z,47.73
2019-02-26T10:08:59.495Z,33.87
2019-02-26T10:11:30.561Z,36.13
2019-02-26T10:14:02.932Z,41.23
2019-02-26T10:16:34.661Z,37.63
2019-02-26T10:19:07.698Z,38.70
2019-02-26T10:21:39.990Z,34.17
2019-02-26T10:24:11.897Z,34.07
2019-02-26T10:26:43.377Z,35.20
2019-02-26T10:29:14.583Z,34.17
2019-02-26T10:31:45.650Z,43.23
2019-02-26T10:34:20.392Z,32.87
2019-02-26T10:36:51.865Z,33.70
2019-02-26T10:39:23.687Z,44.83
2019-02-26T10:41:55.628Z,30.50
2019-02-26T10:44:30.298Z,33.50
2019-02-26T10:47:03.158Z,38.47
2019-02-26T10:49:34.496Z,37.53
2019-02-26T10:52:05.596Z,32.70
2019-02-26T10:54:40.365Z,32.43
2019-02-26T10:57:11.326Z,31.70
2019-02-26T10:59:44.941Z,40.77
2019-02-26T11:02:17.791Z,39.73
2019-02-26T11:04:50.395Z,34.47
2019-02-26T11:07:21.905Z,32.87
2019-02-26T11:09:55.548Z,35.47
2019-02-26T11:12:28.548Z,29.03
2019-02-26T11:15:01.709Z,29.03
2019-02-26T11:17:53.207Z,29.57
2019-02-26T11:20:36.134Z,25.80
2019-02-26T11:23:19.255Z,24.53
2019-02-26T11:25:50.549Z,28.43
2019-02-26T11:28:21.643Z,30.53
2019-02-26T11:30:54.822Z,25.67
2019-02-26T11:33:25.825Z,21.50
2019-02-26T11:36:16.222Z,21.93
2019-02-26T11:39:01.393Z,20.90
2019-02-26T11:41:35.766Z,24.63
2019-02-26T11:44:09.933Z,24.17
2019-02-26T11:46:39.743Z,24.70
2019-02-26T11:49:11.868Z,22.07
2019-02-26T11:51:43.976Z,25.10
2019-02-26T11:54:17.577Z,20.70
2019-02-26T11:56:49.805Z,23.43
2019-02-26T11:59:21.959Z,22.37
2019-02-26T12:01:54.199Z,16.90
2019-02-26T12:04:26.115Z,17.70
2019-02-26T12:07:01.042Z,16.63
2019-02-26T12:09:32.982Z,24.43
2019-02-26T12:12:06.209Z,16.47
2019-02-26T12:14:38.031Z,15.60
2019-02-26T12:17:10.177Z,19.60
2019-02-26T12:19:41.613Z,18.83
2019-02-26T12:22:12.956Z,19.07
2019-02-26T12:24:44.154Z,20.60
2019-02-26T12:27:18.154Z,16.63
2019-02-26T12:29:51.607Z,26.83
2019-02-26T12:32:22.322Z,14.97
2019-02-26T12:34:54.408Z,13.33
2019-02-26T12:37:44.753Z,27.90
2019-02-26T12:40:19.202Z,21.00
2019-02-26T12:42:49.061Z,14.63
2019-02-26T12:45:20.427Z,14.60
2019-02-26T12:47:54.922Z,18.77
2019-02-26T12:50:29.052Z,14.33
2019-02-26T12:52:58.136Z,20.30
2019-02-26T12:55:31.855Z,17.53
2019-02-26T12:58:02.366Z,14.13
2019-02-26T13:00:34.974Z,14.03
2019-02-26T13:03:09.340Z,15.63
2019-02-26T13:05:42.539Z,15.47
2019-02-26T13:08:16.319Z,19.40
2019-02-26T13:10:49.653Z,19.67
2019-02-26T13:13:18.425Z,16.20
2019-02-26T13:15:49.673Z,14.27
2019-02-26T13:18:20.962Z,12.67
2019-02-26T13:20:57.236Z,12.80
2019-02-26T13:23:25.237Z,13.47
2019-02-26T13:25:56.415Z,10.87
2019-02-26T13:28:29.719Z,12.77
2019-02-26T13:31:02.317Z,19.17
2019-02-26T13:33:37.007Z,17.40
2019-02-26T13:36:06.698Z,14.97
2019-02-26T13:38:44.634Z,12.90
2019-02-26T13:41:28.943Z,18.20
2019-02-26T13:43:43.903Z,11.70
2019-02-26T13:46:14.976Z,11.50
2019-02-26T13:48:46.369Z,10.10
2019-02-26T13:51:17.483Z,14.07
2019-02-26T13:53:48.960Z,9.20
2019-02-26T13:56:19.992Z,11.47
2019-02-26T13:58:51.450Z,9.33
2019-02-26T14:01:22.621Z,8.53
2019-02-26T14:03:54.162Z,10.87
2019-02-26T14:06:25.220Z,9.87
2019-02-26T14:08:56.965Z,12.73
2019-02-26T14:11:28.044Z,6.93
2019-02-26T14:13:59.455Z,9.57
2019-02-26T14:16:32.621Z,6.60
2019-02-26T14:19:03.688Z,6.80
2019-02-26T14:21:34.803Z,7.47
2019-02-26T14:24:06.136Z,6.83
2019-02-26T14:26:38.824Z,8.60
2019-02-26T14:29:10.294Z,14.10
2019-02-26T14:31:41.364Z,9.97
2019-02-26T14:34:12.942Z,6.90
2019-02-26T14:36:44.113Z,13.07
2019-02-26T14:39:16.030Z,7.03
2019-02-26T14:41:47.486Z,7.87
2019-02-26T14:44:19.025Z,11.00
2019-02-26T14:46:50.110Z,6.80
2019-02-26T14:49:21.534Z,7.93
2019-02-26T14:51:52.722Z,8.47
2019-02-26T14:54:23.892Z,10.20
2019-02-26T14:56:56.052Z,9.40
2019-02-26T14:59:27.780Z,6.70
2019-02-26T15:01:58.831Z,6.80
2019-02-26T15:04:30.129Z,6.23
2019-02-26T15:07:01.244Z,5.83
2019-02-26T15:09:32.532Z,7.50
2019-02-26T15:12:03.621Z,6.93
2019-02-26T15:14:34.792Z,7.80
2019-02-26T15:17:06.334Z,10.43
2019-02-26T15:19:49.199Z,8.93
2019-02-26T15:22:10.717Z,6.00
2019-02-26T15:24:42.055Z,6.53
2019-02-26T15:27:13.209Z,7.40
2019-02-26T15:29:44.549Z,5.00
2019-02-26T15:32:15.778Z,10.70
2019-02-26T15:34:47.239Z,8.80
2019-02-26T15:37:18.369Z,5.57
2019-02-26T15:39:51.300Z,14.63
2019-02-26T15:42:22.589Z,8.60
2019-02-26T15:44:54.073Z,5.93
2019-02-26T15:47:25.173Z,6.97
2019-02-26T15:49:56.469Z,5.73
2019-02-26T15:52:27.549Z,8.90
2019-02-26T15:54:58.735Z,10.23
2019-02-26T15:57:31.139Z,8.20
2019-02-26T16:00:06.290Z,7.00
2019-02-26T16:02:36.843Z,5.70
2019-02-26T16:05:09.245Z,7.80
2019-02-26T16:07:40.334Z,6.43
2019-02-26T16:10:12.035Z,7.43
2019-02-26T16:12:43.275Z,8.83
2019-02-26T16:15:14.771Z,8.27
2019-02-26T16:17:45.863Z,6.03
2019-02-26T16:20:18.817Z,6.80
2019-02-26T16:22:50.485Z,24.70
2019-02-26T16:25:21.930Z,8.07
2019-02-26T16:27:53.882Z,8.07
2019-02-26T16:30:25.907Z,8.03
2019-02-26T16:32:57.335Z,8.20
2019-02-26T16:35:28.647Z,7.43
2019-02-26T16:37:59.751Z,9.03
2019-02-26T16:40:32.316Z,5.50
2019-02-26T16:43:03.645Z,7.37
2019-02-26T16:45:35.287Z,8.93
2019-02-26T16:48:06.667Z,6.63
2019-02-26T16:50:37.971Z,7.37
2019-02-26T16:53:09.167Z,12.07
2019-02-26T16:55:40.459Z,9.27
2019-02-26T16:58:11.555Z,8.70
2019-02-26T17:00:43.288Z,9.20
2019-02-26T17:03:14.559Z,8.30
2019-02-26T17:05:47.645Z,10.20
2019-02-26T17:08:19.071Z,8.87
2019-02-26T17:10:50.412Z,13.83
2019-02-26T17:13:21.502Z,6.80
2019-02-26T17:15:53.415Z,6.57
2019-02-26T17:18:24.738Z,9.07
2019-02-26T17:20:56.988Z,13.53
2019-02-26T17:23:28.719Z,7.93
2019-02-26T17:26:00.579Z,7.97
2019-02-26T17:28:32.363Z,10.67
2019-02-26T17:31:03.759Z,11.23
2019-02-26T17:33:34.815Z,11.30
2019-02-26T17:36:06.111Z,14.90
2019-02-26T17:38:37.153Z,11.20
2019-02-26T17:41:09.961Z,16.40
2019-02-26T17:43:41.891Z,20.40
2019-02-26T17:46:13.515Z,20.47
2019-02-26T17:48:44.577Z,19.50
2019-02-26T17:51:18.746Z,23.93
2019-02-26T17:53:48.675Z,22.17
2019-02-26T17:56:20.055Z,27.77
2019-02-26T17:58:51.414Z,21.27
2019-02-26T18:01:22.727Z,24.60
2019-02-26T18:03:53.863Z,23.07
2019-02-26T18:06:25.337Z,23.87
2019-02-26T18:08:56.996Z,30.70
2019-02-26T18:11:28.231Z,25.77
2019-02-26T18:14:00.193Z,26.53
2019-02-26T18:16:34.383Z,23.90
2019-02-26T18:19:04.810Z,33.60
2019-02-26T18:21:36.015Z,29.40
2019-02-26T18:24:07.168Z,26.10
2019-02-26T18:26:38.575Z,27.70
2019-02-26T18:29:09.867Z,22.50
2019-02-26T18:31:41.104Z,28.90
2019-02-26T18:34:14.030Z,25.37
2019-02-26T18:36:45.998Z,24.80
2019-02-26T18:39:17.309Z,24.43
2019-02-26T18:41:50.784Z,29.83
2019-02-26T18:44:22.024Z,28.57
2019-02-26T18:46:53.383Z,31.23
2019-02-26T18:49:24.623Z,28.70
2019-02-26T18:51:55.961Z,43.47
2019-02-26T18:54:27.065Z,31.97
2019-02-26T18:56:58.617Z,107.40
2019-02-26T18:59:29.797Z,71.63
2019-02-26T19:02:03.319Z,77.63
2019-02-26T19:04:34.071Z,45.37
2019-02-26T19:07:05.587Z,47.27
2019-02-26T19:09:36.689Z,46.53
2019-02-26T19:12:08.499Z,44.50
2019-02-26T19:14:42.366Z,39.47
2019-02-26T19:17:13.045Z,37.20
2019-02-26T19:19:44.301Z,37.07
2019-02-26T19:22:15.552Z,45.60
2019-02-26T19:24:46.678Z,40.63
2019-02-26T19:27:19.392Z,39.87
2019-02-26T19:29:50.807Z,39.03
2019-02-26T19:32:22.263Z,41.03
2019-02-26T19:34:53.391Z,62.90
2019-02-26T19:37:24.853Z,38.50
2019-02-26T19:39:55.925Z,37.47
2019-02-26T19:42:27.265Z,39.03
2019-02-26T19:44:58.381Z,43.13
2019-02-26T19:47:29.649Z,38.10
2019-02-26T19:50:00.707Z,39.17
2019-02-26T19:52:32.156Z,41.03
2019-02-26T19:55:03.286Z,38.40
2019-02-26T19:57:34.741Z,37.97
2019-02-26T20:00:06.757Z,44.17
2019-02-26T20:02:39.906Z,42.27
2019-02-26T20:05:12.829Z,37.20
2019-02-26T20:07:44.339Z,39.17
2019-02-26T20:10:15.801Z,36.90
2019-02-26T20:12:47.243Z,43.70
2019-02-26T20:15:21.725Z,42.97
2019-02-26T20:17:51.284Z,38.40
2019-02-26T20:20:22.491Z,44.07
2019-02-26T20:22:53.873Z,44.90
2019-02-26T20:25:25.070Z,40.43
2019-02-26T20:28:04.825Z,50.00
2019-02-26T20:30:29.570Z,45.57
2019-02-26T20:33:01.554Z,45.00
2019-02-26T20:35:33.817Z,46.57
2019-02-26T20:38:05.211Z,37.50
2019-02-26T20:40:36.469Z,46.40
2019-02-26T20:43:08.039Z,52.93
2019-02-26T20:45:39.533Z,45.50
2019-02-26T20:48:11.023Z,42.90
2019-02-26T20:50:42.351Z,38.27
2019-02-26T20:53:14.487Z,42.83
2019-02-26T20:55:52.473Z,42.63
2019-02-26T20:58:19.768Z,41.03
2019-02-26T21:00:50.967Z,41.27
2019-02-26T21:03:22.794Z,45.67
2019-02-26T21:05:55.668Z,41.00
2019-02-26T21:08:30.784Z,38.30
2019-02-26T21:11:00.879Z,40.43
2019-02-26T21:13:34.674Z,44.70
2019-02-26T21:16:05.181Z,37.70
2019-02-26T21:18:39.342Z,40.07
2019-02-26T21:21:11.704Z,41.60
2019-02-26T21:23:43.613Z,41.20
2019-02-26T21:26:14.797Z,43.80
2019-02-26T21:28:46.318Z,41.93
2019-02-26T21:31:29.521Z,40.53
2019-02-26T21:34:03.746Z,37.53
2019-02-26T21:36:34.023Z,39.60
2019-02-26T21:39:10.880Z,39.07
2019-02-26T21:41:41.491Z,50.43
2019-02-26T21:44:12.924Z,38.53
2019-02-26T21:46:44.153Z,43.03
2019-02-26T21:49:15.643Z,44.70
2019-02-26T21:51:46.921Z,42.10
2019-02-26T21:54:18.451Z,34.63
2019-02-26T21:56:49.681Z,36.10
2019-02-26T21:59:21.137Z,37.80
2019-02-26T22:01:52.419Z,34.53
2019-02-26T22:04:24.187Z,40.43
2019-02-26T22:06:55.377Z,39.53
2019-02-26T22:09:29.954Z,35.10
2019-02-26T22:11:59.735Z,36.70
2019-02-26T22:14:31.414Z,37.30
2019-02-26T22:17:04.318Z,49.53
2019-02-26T22:19:37.751Z,42.90
2019-02-26T22:22:08.873Z,43.63
2019-02-26T22:24:40.795Z,47.07
2019-02-26T22:27:12.109Z,38.80
2019-02-26T22:29:55.131Z,40.57
2019-02-26T22:32:26.413Z,35.07
2019-02-26T22:34:57.857Z,38.87
2019-02-26T22:37:29.067Z,43.27
2019-02-26T22:40:00.668Z,46.73
2019-02-26T22:42:31.971Z,43.17
2019-02-26T22:45:03.393Z,45.33
2019-02-26T22:47:34.947Z,41.80
2019-02-26T22:50:07.903Z,42.47
2019-02-26T22:52:39.503Z,40.77
2019-02-26T22:55:16.011Z,41.03
2019-02-26T22:57:44.160Z,36.53
2019-02-26T23:00:35.587Z,43.03
2019-02-26T23:03:10.733Z,42.47
2019-02-26T23:05:41.695Z,46.70
2019-02-26T23:08:13.094Z,49.67
2019-02-26T23:10:57.504Z,41.70
2019-02-26T23:13:31.868Z,41.60
2019-02-26T23:16:03.187Z,49.70
2019-02-26T23:18:35.000Z,41.60
2019-02-26T23:21:07.271Z,46.37
2019-02-26T23:23:38.650Z,47.07
2019-02-26T23:26:10.843Z,45.07
2019-02-26T23:28:42.621Z,41.67
2019-02-26T23:31:16.194Z,40.13
2019-02-26T23:33:48.444Z,37.77
2019-02-26T23:36:20.427Z,37.07
2019-02-26T23:38:51.601Z,41.40
2019-02-26T23:41:24.352Z,42.27
2019-02-26T23:43:55.523Z,42.47
2019-02-26T23:46:29.531Z,38.20
2019-02-26T23:48:59.751Z,43.10
2019-02-26T23:51:31.283Z,43.60
2019-02-26T23:54:04.689Z,38.87
2019-02-26T23:56:35.619Z,43.37
2019-02-26T23:59:06.899Z,45.73
